Time;durP1;ratioP1;P1;durP2;ratioP2;P2;SDS_P1;SDS_P2;PMS_P1;PMS_P2;Temp;Humidity;BMP_temperature;BMP_pressure;BME280_temperature;BME280_humidity;BME280_pressure;Samples;Min_cycle;Max_cycle;Signal;HPM_P1;HPM_P2
2021/03/17 00:01:36;;;;;;;13.57;8.23;;;2.50;99.90;;;;;;5011004;28;20045;-84
2021/03/17 00:04:14;;;;;;;10.38;8.00;;;2.50;99.90;;;;;;5010562;28;20049;-84
2021/03/17 00:06:42;;;;;;;13.73;8.95;;;2.50;99.90;;;;;;5010900;28;20121;-85
2021/03/17 00:09:09;;;;;;;13.70;8.80;;;2.40;99.90;;;;;;5013686;28;20103;-83
2021/03/17 00:11:35;;;;;;;18.25;9.98;;;2.40;99.90;;;;;;5013896;28;20115;-85
2021/03/17 00:14:02;;;;;;;15.20;9.38;;;2.40;99.90;;;;;;5011915;28;20435;-84
2021/03/17 00:16:33;;;;;;;14.15;9.43;;;2.40;99.90;;;;;;5014130;28;20379;-85
2021/03/17 00:19:00;;;;;;;21.10;10.30;;;2.40;99.90;;;;;;4987803;28;20042;-84
2021/03/17 00:21:31;;;;;;;14.70;9.80;;;2.30;99.90;;;;;;5008888;28;20080;-85
2021/03/17 00:23:58;;;;;;;12.95;9.50;;;2.40;99.90;;;;;;5000883;28;20142;-87
2021/03/17 00:26:26;;;;;;;14.27;9.63;;;2.40;99.90;;;;;;5012975;28;20065;-84
2021/03/17 00:28:52;;;;;;;15.68;9.25;;;2.40;99.90;;;;;;4980227;28;20050;-84
2021/03/17 00:31:18;;;;;;;17.35;9.73;;;2.30;99.90;;;;;;4996627;28;20102;-86
2021/03/17 00:33:47;;;;;;;14.70;9.30;;;2.30;99.90;;;;;;4998019;28;20443;-86
2021/03/17 00:36:14;;;;;;;15.70;10.30;;;2.30;99.90;;;;;;5011821;28;20058;-85
2021/03/17 00:38:43;;;;;;;14.38;10.68;;;2.30;99.90;;;;;;5011304;28;20442;-86
2021/03/17 00:41:13;;;;;;;15.75;10.55;;;2.30;99.90;;;;;;5015712;28;20096;-85
2021/03/17 00:43:40;;;;;;;17.98;10.48;;;2.20;99.90;;;;;;5008158;28;20054;-85
2021/03/17 00:46:09;;;;;;;18.20;11.18;;;2.20;99.90;;;;;;5007828;28;20467;-86
2021/03/17 00:48:35;;;;;;;15.05;10.20;;;2.20;99.90;;;;;;5015844;28;20127;-85
2021/03/17 00:51:04;;;;;;;13.10;9.95;;;2.10;99.90;;;;;;5008029;28;20482;-86
2021/03/17 00:53:33;;;;;;;15.55;10.20;;;2.00;99.90;;;;;;5013926;28;20417;-85
2021/03/17 00:56:08;;;;;;;14.32;10.13;;;2.00;99.90;;;;;;5018288;28;20104;-85
2021/03/17 00:58:35;;;;;;;15.65;10.18;;;1.90;99.90;;;;;;5017564;28;20127;-86
2021/03/17 01:01:04;;;;;;;14.60;10.10;;;1.80;99.90;;;;;;5016588;28;20081;-86
2021/03/17 01:03:33;;;;;;;14.90;10.15;;;1.80;99.90;;;;;;5014958;28;20057;-85
2021/03/17 01:06:02;;;;;;;15.73;10.23;;;1.70;99.90;;;;;;5000825;28;20062;-84
2021/03/17 01:08:30;;;;;;;16.85;11.10;;;1.70;99.90;;;;;;5008180;28;20054;-84
2021/03/17 01:10:58;;;;;;;19.00;10.77;;;1.60;99.90;;;;;;5022288;28;20046;-86
2021/03/17 01:13:24;;;;;;;16.83;11.45;;;1.50;99.90;;;;;;4984345;28;20108;-87
2021/03/17 01:15:53;;;;;;;17.38;11.52;;;1.50;99.90;;;;;;5016623;28;20056;-86
2021/03/17 01:18:20;;;;;;;17.73;11.63;;;1.50;99.90;;;;;;5014706;28;20057;-86
2021/03/17 01:20:47;;;;;;;18.80;12.00;;;1.50;99.90;;;;;;5015962;28;20046;-85
2021/03/17 01:23:15;;;;;;;20.45;11.68;;;1.50;99.90;;;;;;5013978;28;20057;-86
2021/03/17 01:25:44;;;;;;;17.73;11.88;;;1.50;99.90;;;;;;5009858;28;20127;-84
2021/03/17 01:28:15;;;;;;;18.45;11.88;;;1.50;99.90;;;;;;5015986;28;20119;-85
2021/03/17 01:30:49;;;;;;;20.50;12.52;;;1.40;99.90;;;;;;5015991;28;20500;-86
2021/03/17 01:33:19;;;;;;;20.23;11.98;;;1.40;99.90;;;;;;5014657;28;20477;-86
2021/03/17 01:35:48;;;;;;;19.05;12.32;;;1.40;99.90;;;;;;5004810;28;20065;-85
2021/03/17 01:38:14;;;;;;;20.80;12.32;;;1.40;99.90;;;;;;5016355;28;20069;-85
2021/03/17 01:40:45;;;;;;;20.67;12.40;;;1.40;99.90;;;;;;5016296;28;20045;-85
2021/03/17 01:43:13;;;;;;;22.02;12.50;;;1.50;99.90;;;;;;5015825;28;20148;-86
2021/03/17 01:45:44;;;;;;;21.48;11.73;;;1.50;99.90;;;;;;5012392;28;20081;-87
2021/03/17 01:48:10;;;;;;;18.23;12.30;;;1.50;99.90;;;;;;5015944;28;20056;-87
2021/03/17 01:50:44;;;;;;;20.15;12.02;;;1.60;99.90;;;;;;5014977;28;20410;-87
2021/03/17 01:53:16;;;;;;;22.95;13.23;;;1.60;99.90;;;;;;5008281;28;20104;-87
2021/03/17 01:55:44;;;;;;;20.00;12.27;;;1.60;99.90;;;;;;5010578;28;20053;-87
2021/03/17 01:58:12;;;;;;;18.10;11.38;;;1.60;99.90;;;;;;5014495;28;20375;-86
2021/03/17 02:00:40;;;;;;;20.02;12.52;;;1.60;99.90;;;;;;5014310;28;20419;-86
2021/03/17 02:03:09;;;;;;;16.67;10.73;;;1.60;99.90;;;;;;5012373;28;20050;-86
2021/03/17 02:05:40;;;;;;;18.80;10.93;;;1.70;99.90;;;;;;5029270;28;20144;-86
2021/03/17 02:08:33;;;;;;;18.33;10.95;;;1.70;99.90;;;;;;5034106;28;20122;-86
2021/03/17 02:11:00;;;;;;;17.25;11.55;;;1.70;99.90;;;;;;5011515;28;20118;-85
2021/03/17 02:13:53;;;;;;;16.45;10.35;;;1.70;99.90;;;;;;5014690;28;20079;-86
2021/03/17 02:16:31;;;;;;;21.00;11.25;;;1.70;99.90;;;;;;5015152;28;20071;-86
2021/03/17 02:19:06;;;;;;;21.35;10.68;;;1.80;99.90;;;;;;5015184;28;20081;-86
2021/03/17 02:22:07;;;;;;;19.90;10.85;;;1.80;99.90;;;;;;5034774;28;20115;-86
2021/03/17 02:24:53;;;;;;;16.27;10.80;;;1.80;99.90;;;;;;5034328;28;20049;-86
2021/03/17 02:28:07;;;;;;;14.98;10.10;;;1.80;99.90;;;;;;5020848;28;20463;-86
2021/03/17 02:31:18;;;;;;;12.60;9.00;;;1.80;99.90;;;;;;5028633;28;20366;-86
2021/03/17 02:34:12;;;;;;;13.57;8.02;;;1.90;99.90;;;;;;4962768;29;20119;-85
2021/03/17 02:36:57;;;;;;;9.80;7.43;;;1.90;99.90;;;;;;5043781;28;20064;-86
2021/03/17 02:39:32;;;;;;;12.40;8.43;;;1.90;99.90;;;;;;5026291;28;20096;-87
2021/03/17 02:42:07;;;;;;;12.75;7.82;;;1.90;99.90;;;;;;4998839;28;20066;-87
2021/03/17 02:44:42;;;;;;;11.05;7.88;;;1.90;99.90;;;;;;5026785;28;20386;-86
2021/03/17 02:47:09;;;;;;;9.57;6.60;;;1.80;99.90;;;;;;5032318;28;20505;-86
2021/03/17 02:49:38;;;;;;;9.50;7.25;;;1.90;99.90;;;;;;5033113;28;20418;-86
2021/03/17 02:52:05;;;;;;;11.23;7.35;;;1.80;99.90;;;;;;5033760;28;20075;-87
2021/03/17 02:54:34;;;;;;;9.43;7.05;;;1.80;99.90;;;;;;5015969;28;20398;-85
2021/03/17 02:57:10;;;;;;;9.85;7.13;;;1.80;99.90;;;;;;5026052;28;20431;-85
2021/03/17 02:59:38;;;;;;;12.48;7.30;;;1.70;99.90;;;;;;5011345;28;20440;-87
2021/03/17 03:02:06;;;;;;;13.02;8.77;;;1.70;99.90;;;;;;5005250;28;20176;-86
2021/03/17 03:04:35;;;;;;;13.07;9.13;;;1.70;99.90;;;;;;5013953;28;20132;-86
2021/03/17 03:07:05;;;;;;;14.55;9.98;;;1.60;99.90;;;;;;5030595;28;20061;-86
2021/03/17 03:09:32;;;;;;;15.70;10.75;;;1.60;99.90;;;;;;5030596;28;20111;-86
2021/03/17 03:12:06;;;;;;;18.73;11.23;;;1.60;99.90;;;;;;5014952;28;20445;-87
2021/03/17 03:14:35;;;;;;;13.98;9.68;;;1.50;99.90;;;;;;5028066;28;20525;-85
2021/03/17 03:17:07;;;;;;;15.27;10.57;;;1.50;99.90;;;;;;5014038;28;20145;-86
2021/03/17 03:19:40;;;;;;;18.35;10.70;;;1.50;99.90;;;;;;5031622;28;20371;-85
2021/03/17 03:22:08;;;;;;;;;;;1.50;99.90;;;;;;5015077;28;20081;-86
2021/03/17 03:24:37;;;;;;;17.17;10.13;;;1.50;99.90;;;;;;5030423;28;20013;-86
2021/03/17 03:27:04;;;;;;;18.08;11.25;;;1.50;99.90;;;;;;5031528;28;20150;-86
2021/03/17 03:29:36;;;;;;;19.45;11.73;;;1.50;99.90;;;;;;5031969;28;20111;-86
2021/03/17 03:32:06;;;;;;;20.40;12.67;;;1.40;99.90;;;;;;5015910;28;20100;-86
2021/03/17 03:34:35;;;;;;;15.02;10.50;;;1.40;99.90;;;;;;4998617;28;20081;-85
2021/03/17 03:37:04;;;;;;;15.23;9.85;;;1.40;99.90;;;;;;5013851;28;20140;-86
2021/03/17 03:39:31;;;;;;;16.90;9.68;;;1.40;99.90;;;;;;5013935;28;20405;-86
2021/03/17 03:41:57;;;;;;;15.57;9.90;;;1.40;99.90;;;;;;5013390;28;20469;-86
2021/03/17 03:44:30;;;;;;;14.88;9.88;;;1.40;99.90;;;;;;5031475;28;20109;-86
2021/03/17 03:47:01;;;;;;;15.00;9.70;;;1.40;99.90;;;;;;5032453;28;20657;-85
2021/03/17 03:49:29;;;;;;;19.10;10.27;;;1.40;99.90;;;;;;5028903;28;20477;-85
2021/03/17 03:52:05;;;;;;;14.27;9.10;;;1.40;99.90;;;;;;5014161;28;20057;-85
2021/03/17 03:54:41;;;;;;;15.60;10.63;;;1.30;99.90;;;;;;5030497;28;20045;-85
2021/03/17 03:57:23;;;;;;;15.95;9.82;;;1.30;99.90;;;;;;5014577;28;20045;-85
2021/03/17 04:00:05;;;;;;;10.93;7.70;;;1.20;99.90;;;;;;5030048;28;20049;-84
2021/03/17 04:02:36;;;;;;;17.02;10.40;;;1.10;99.90;;;;;;5033319;28;20049;-86
2021/03/17 04:05:08;;;;;;;17.27;11.10;;;1.00;99.90;;;;;;5034156;28;20049;-85
2021/03/17 04:07:36;;;;;;;18.75;11.93;;;0.90;99.90;;;;;;5015684;28;20370;-86
2021/03/17 04:10:07;;;;;;;20.65;12.30;;;1.00;99.90;;;;;;5029565;28;20069;-85
2021/03/17 04:12:39;;;;;;;19.15;12.82;;;1.00;99.90;;;;;;5031559;28;20390;-86
2021/03/17 04:15:08;;;;;;;21.92;13.07;;;1.00;99.90;;;;;;5017948;28;20091;-85
2021/03/17 04:17:52;;;;;;;20.25;13.13;;;1.20;99.90;;;;;;5034534;28;20435;-84
2021/03/17 04:20:23;;;;;;;22.38;12.90;;;1.30;99.90;;;;;;5034305;28;20125;-86
2021/03/17 04:22:53;;;;;;;23.45;12.55;;;1.30;99.90;;;;;;5036744;28;20057;-84
2021/03/17 04:25:26;;;;;;;23.60;13.70;;;1.40;99.90;;;;;;5024318;28;20045;-85
2021/03/17 04:27:54;;;;;;;23.83;13.02;;;1.50;99.90;;;;;;5037928;28;20045;-85
2021/03/17 04:30:22;;;;;;;19.85;12.88;;;1.50;99.90;;;;;;5029348;28;20180;-86
2021/03/17 04:32:50;;;;;;;21.38;13.07;;;1.60;99.90;;;;;;5008660;28;20232;-86
2021/03/17 04:35:20;;;;;;;22.50;13.50;;;1.60;99.90;;;;;;5018720;28;20059;-86
2021/03/17 04:37:51;;;;;;;20.63;13.40;;;1.70;99.90;;;;;;5036640;28;20045;-85
2021/03/17 04:40:18;;;;;;;19.98;12.77;;;1.70;99.90;;;;;;5028345;28;20049;-85
2021/03/17 04:42:44;;;;;;;20.88;13.40;;;1.70;99.90;;;;;;5012334;28;20111;-84
2021/03/17 04:45:14;;;;;;;24.08;16.15;;;1.70;99.90;;;;;;5022806;28;20180;-84
2021/03/17 04:47:43;;;;;;;27.33;14.73;;;1.70;99.90;;;;;;5044782;28;20064;-83
2021/03/17 04:50:17;;;;;;;22.90;13.82;;;1.70;99.90;;;;;;5044817;28;20041;-84
2021/03/17 04:52:46;;;;;;;21.92;14.50;;;1.70;99.90;;;;;;5022136;28;20244;-86
2021/03/17 04:55:16;;;;;;;21.60;13.23;;;1.80;99.90;;;;;;5035871;28;20057;-85
2021/03/17 04:57:45;;;;;;;30.77;19.42;;;1.80;99.90;;;;;;5017083;28;20471;-86
2021/03/17 05:00:17;;;;;;;29.00;17.42;;;1.80;99.90;;;;;;5014667;28;20387;-85
2021/03/17 05:03:08;;;;;;;88.53;49.28;;;1.70;99.90;;;;;;5019810;28;20053;-84
2021/03/17 05:05:39;;;;;;;29.70;17.13;;;1.70;99.90;;;;;;5038003;28;20128;-84
2021/03/17 05:08:09;;;;;;;25.20;15.57;;;1.70;99.90;;;;;;5019376;28;20419;-85
2021/03/17 05:10:42;;;;;;;26.90;15.48;;;1.70;99.90;;;;;;5035151;28;20497;-85
2021/03/17 05:13:13;;;;;;;24.98;15.07;;;1.70;99.90;;;;;;5002879;28;20465;-85
2021/03/17 05:15:40;;;;;;;24.73;15.88;;;1.70;99.90;;;;;;5036246;28;20061;-86
2021/03/17 05:18:10;;;;;;;26.02;15.88;;;1.70;99.90;;;;;;5037119;28;20081;-86
2021/03/17 05:20:38;;;;;;;27.27;17.17;;;1.70;99.90;;;;;;5008590;28;20111;-85
2021/03/17 05:23:08;;;;;;;27.80;16.95;;;1.70;99.90;;;;;;5032707;28;20053;-86
2021/03/17 05:25:39;;;;;;;27.02;16.80;;;1.70;99.90;;;;;;5036381;28;20141;-86
2021/03/17 05:28:06;;;;;;;29.90;18.88;;;1.70;99.90;;;;;;5037047;28;20479;-85
2021/03/17 05:30:38;;;;;;;31.00;18.20;;;1.70;99.90;;;;;;5017810;28;20111;-86
2021/03/17 05:33:08;;;;;;;39.75;21.17;;;1.70;99.90;;;;;;5018779;28;20095;-86
2021/03/17 05:35:35;;;;;;;27.50;17.50;;;1.80;99.90;;;;;;5017092;28;20064;-84
2021/03/17 05:38:06;;;;;;;31.63;18.80;;;1.70;99.90;;;;;;5035893;28;20103;-85
2021/03/17 05:40:36;;;;;;;30.25;17.85;;;1.70;99.90;;;;;;5034235;28;20089;-88
2021/03/17 05:43:06;;;;;;;36.83;19.45;;;1.70;99.90;;;;;;5030401;28;20042;-86
2021/03/17 05:45:36;;;;;;;34.05;20.52;;;1.70;99.90;;;;;;5035576;28;20049;-87
2021/03/17 05:48:08;;;;;;;34.50;19.88;;;1.80;99.90;;;;;;5026423;28;20042;-87
2021/03/17 05:50:37;;;;;;;38.88;22.23;;;1.80;99.90;;;;;;5038487;28;20099;-86
2021/03/17 05:53:11;;;;;;;35.83;21.48;;;1.80;99.90;;;;;;4988701;28;20041;-87
2021/03/17 05:55:42;;;;;;;40.55;23.08;;;1.90;99.90;;;;;;5021985;28;20099;-86
2021/03/17 05:58:09;;;;;;;38.75;22.08;;;1.90;99.90;;;;;;5019842;28;20041;-87
2021/03/17 06:00:35;;;;;;;40.85;22.88;;;1.90;99.90;;;;;;5037148;28;20096;-85
2021/03/17 06:03:04;;;;;;;38.72;23.55;;;1.90;99.90;;;;;;5027948;28;20071;-85
2021/03/17 06:05:31;;;;;;;40.90;24.67;;;1.90;99.90;;;;;;5048386;28;20042;-87
2021/03/17 06:08:12;;;;;;;39.97;25.08;;;2.00;99.90;;;;;;5031377;28;20054;-85
2021/03/17 06:10:45;;;;;;;38.97;24.27;;;2.00;99.90;;;;;;5045597;28;20084;-84
2021/03/17 06:13:13;;;;;;;45.78;24.30;;;2.00;99.90;;;;;;5042632;28;20041;-84
2021/03/17 06:15:45;;;;;;;42.13;24.42;;;2.00;99.90;;;;;;5047548;28;20045;-85
2021/03/17 06:18:41;;;;;;;41.42;24.63;;;2.10;99.90;;;;;;5028710;28;20133;-85
2021/03/17 06:21:08;;;;;;;40.08;24.33;;;2.00;99.90;;;;;;5009586;28;20089;-84
2021/03/17 06:23:36;;;;;;;38.30;23.88;;;2.10;99.90;;;;;;5036244;28;20144;-85
2021/03/17 06:26:11;;;;;;;42.03;23.02;;;2.10;99.90;;;;;;5006922;28;20049;-84
2021/03/17 06:28:42;;;;;;;40.40;25.27;;;2.20;99.90;;;;;;5036296;28;20078;-84
2021/03/17 06:31:10;;;;;;;41.55;26.20;;;2.20;99.90;;;;;;5015555;28;20073;-85
2021/03/17 06:33:41;;;;;;;42.15;24.92;;;2.30;99.90;;;;;;5038700;28;20080;-85
2021/03/17 06:36:09;;;;;;;43.08;25.45;;;2.30;99.90;;;;;;5032681;28;20339;-85
2021/03/17 06:38:35;;;;;;;49.40;26.98;;;2.30;99.90;;;;;;5025287;28;20478;-86
2021/03/17 06:41:04;;;;;;;44.97;27.10;;;2.40;99.90;;;;;;5023164;28;20030;-85
2021/03/17 06:43:41;;;;;;;42.53;26.10;;;2.40;99.90;;;;;;5026365;28;20061;-84
2021/03/17 06:46:10;;;;;;;41.05;26.20;;;2.40;99.90;;;;;;5044331;28;20042;-86
2021/03/17 06:49:06;;;;;;;38.38;24.58;;;2.40;99.90;;;;;;5045620;28;20057;-86
2021/03/17 06:51:51;;;;;;;41.42;25.90;;;2.50;99.90;;;;;;4997826;28;20085;-86
2021/03/17 06:54:18;;;;;;;41.72;26.10;;;2.50;99.90;;;;;;4979333;28;20066;-83
2021/03/17 06:56:46;;;;;;;46.83;27.40;;;2.50;99.90;;;;;;4991798;28;20050;-86
2021/03/17 06:59:15;;;;;;;42.70;25.75;;;2.40;99.90;;;;;;4998720;28;20045;-84
2021/03/17 07:01:45;;;;;;;45.63;26.13;;;2.40;99.90;;;;;;4996815;28;20054;-86
2021/03/17 07:04:21;;;;;;;41.20;25.02;;;2.30;99.90;;;;;;5005142;28;20047;-85
2021/03/17 07:07:03;;;;;;;40.35;24.77;;;2.30;99.90;;;;;;5006132;28;20042;-86
2021/03/17 07:09:31;;;;;;;41.83;24.73;;;2.30;99.90;;;;;;4986900;28;20054;-85
2021/03/17 07:12:10;;;;;;;37.40;23.08;;;2.20;99.90;;;;;;4992416;28;20050;-85
2021/03/17 07:14:39;;;;;;;39.17;23.40;;;2.20;99.90;;;;;;4982426;28;20081;-84
2021/03/17 07:17:30;;;;;;;38.08;23.02;;;2.20;99.90;;;;;;4993495;28;20644;-84
2021/03/17 07:19:57;;;;;;;42.20;23.52;;;2.20;99.90;;;;;;4990979;28;20050;-86
2021/03/17 07:22:29;;;;;;;36.67;21.23;;;2.30;99.90;;;;;;5003078;28;20053;-85
2021/03/17 07:25:03;;;;;;;36.13;21.35;;;2.30;99.90;;;;;;5006521;28;20575;-86
2021/03/17 07:27:32;;;;;;;27.05;17.20;;;2.20;99.90;;;;;;5015310;28;20045;-87
2021/03/17 07:29:58;;;;;;;31.75;18.55;;;2.10;99.90;;;;;;5015930;28;20077;-86
2021/03/17 07:32:55;;;;;;;29.67;17.33;;;2.10;99.90;;;;;;5012442;28;20046;-88
2021/03/17 07:35:27;;;;;;;31.17;17.80;;;2.10;99.90;;;;;;5022863;28;20056;-86
2021/03/17 07:38:23;;;;;;;28.88;18.08;;;2.10;99.90;;;;;;5013753;28;20056;-86
2021/03/17 07:40:54;;;;;;;33.58;18.75;;;2.20;99.90;;;;;;5008693;28;20053;-85
2021/03/17 07:43:25;;;;;;;35.30;19.77;;;2.20;99.90;;;;;;5028146;28;20056;-86
2021/03/17 07:45:59;;;;;;;36.30;20.42;;;2.30;99.90;;;;;;5017234;28;20049;-87
2021/03/17 07:48:41;;;;;;;32.25;19.48;;;2.30;99.90;;;;;;5011562;28;20141;-87
2021/03/17 07:51:08;;;;;;;34.38;20.40;;;2.30;99.90;;;;;;5017371;28;20076;-88
2021/03/17 07:53:39;;;;;;;35.13;20.85;;;2.50;99.90;;;;;;5018658;28;20057;-87
2021/03/17 07:56:05;;;;;;;32.47;19.77;;;2.60;99.90;;;;;;5014841;28;20151;-88
2021/03/17 07:58:33;;;;;;;35.38;19.92;;;2.70;99.90;;;;;;5029629;28;20133;-86
2021/03/17 08:01:06;;;;;;;32.50;18.58;;;2.80;99.90;;;;;;5020709;28;20203;-88
2021/03/17 08:03:38;;;;;;;30.23;18.67;;;2.90;99.90;;;;;;5018830;28;20080;-87
2021/03/17 08:06:05;;;;;;;30.58;18.45;;;3.10;99.90;;;;;;5019985;28;20103;-86
2021/03/17 08:08:32;;;;;;;25.45;16.88;;;3.20;99.90;;;;;;5043199;28;20057;-86
2021/03/17 08:11:06;;;;;;;27.05;17.23;;;3.30;99.90;;;;;;5049077;28;20069;-87
2021/03/17 08:13:35;;;;;;;25.10;16.20;;;3.50;99.90;;;;;;5051339;28;20133;-83
2021/03/17 08:16:23;;;;;;;28.30;16.52;;;3.70;99.90;;;;;;5028261;28;20065;-84
2021/03/17 08:18:51;;;;;;;25.83;16.63;;;3.70;99.90;;;;;;5023709;28;20045;-83
2021/03/17 08:22:04;;;;;;;23.05;15.00;;;3.70;99.90;;;;;;5020075;28;20116;-84
2021/03/17 08:24:30;;;;;;;22.77;14.65;;;3.70;99.90;;;;;;5016949;28;20053;-84
2021/03/17 08:26:58;;;;;;;27.42;16.25;;;3.80;99.90;;;;;;5036832;28;20056;-83
2021/03/17 08:29:43;;;;;;;24.85;14.52;;;4.00;99.90;;;;;;5006400;28;20134;-84
2021/03/17 08:32:14;;;;;;;21.60;13.15;;;4.10;99.90;;;;;;5035714;28;20443;-84
2021/03/17 08:34:56;;;;;;;20.23;13.68;;;4.20;99.90;;;;;;5035267;28;20046;-84
2021/03/17 08:38:12;;;;;;;25.70;14.45;;;4.10;99.90;;;;;;5019638;28;20112;-84
2021/03/17 08:40:39;;;;;;;22.00;13.85;;;4.00;99.90;;;;;;4961289;28;20044;-86
2021/03/17 08:43:36;;;;;;;19.88;14.00;;;4.00;99.90;;;;;;4964419;28;20122;-85
2021/03/17 08:46:14;;;;;;;19.77;13.05;;;4.10;99.90;;;;;;5005904;28;20055;-87
2021/03/17 08:48:57;;;;;;;20.88;12.48;;;4.20;99.90;;;;;;5036278;28;20049;-84
2021/03/17 08:51:49;;;;;;;20.20;12.45;;;4.30;99.90;;;;;;5039003;28;20077;-85
2021/03/17 08:54:33;;;;;;;17.45;12.70;;;4.30;99.90;;;;;;5028130;28;20056;-87
2021/03/17 08:57:06;;;;;;;16.08;10.25;;;4.50;99.90;;;;;;5029332;28;20037;-87
2021/03/17 09:00:00;;;;;;;18.02;11.77;;;4.40;99.90;;;;;;5045926;28;20045;-83
2021/03/17 09:02:30;;;;;;;16.55;9.77;;;4.50;99.90;;;;;;5011830;28;20068;-85
2021/03/17 09:05:18;;;;;;;15.13;10.05;;;4.60;99.90;;;;;;4999996;28;20104;-85
2021/03/17 09:08:04;;;;;;;21.85;10.45;;;5.10;99.90;;;;;;4987162;28;20055;-84
2021/03/17 09:10:47;;;;;;;16.73;10.57;;;5.60;99.90;;;;;;4995776;28;20475;-85
2021/03/17 09:13:36;;;;;;;12.75;9.48;;;6.50;99.90;;;;;;4994479;28;20038;-85
2021/03/17 09:16:03;;;;;;;11.77;7.85;;;7.30;99.90;;;;;;4996911;28;20080;-86
2021/03/17 09:19:10;;;;;;;19.15;8.30;;;8.90;99.90;;;;;;4994816;28;20058;-86
2021/03/17 09:21:42;;;;;;;13.68;6.75;;;10.40;99.90;;;;;;4997102;28;20050;-86
2021/03/17 09:24:32;;;;;;;9.07;5.90;;;10.80;99.90;;;;;;4996087;28;20073;-85
2021/03/17 09:27:10;;;;;;;8.43;4.88;;;10.60;90.80;;;;;;4990788;28;20046;-85
2021/03/17 09:29:39;;;;;;;5.70;3.97;;;10.20;90.80;;;;;;4991958;28;20078;-85
2021/03/17 09:32:07;;;;;;;13.68;8.68;;;10.80;81.50;;;;;;4992143;28;20097;-85
2021/03/17 09:34:35;;;;;;;15.43;8.55;;;10.90;97.90;;;;;;4994888;28;20046;-85
2021/03/17 09:37:09;;;;;;;10.90;6.38;;;10.10;99.90;;;;;;5011772;28;20084;-86
2021/03/17 09:39:37;;;;;;;8.15;6.10;;;9.00;99.90;;;;;;4996824;28;20042;-85
2021/03/17 09:42:07;;;;;;;6.53;4.78;;;8.50;99.90;;;;;;4995522;28;20046;-83
2021/03/17 09:44:37;;;;;;;9.63;5.85;;;8.10;99.90;;;;;;4978983;28;20070;-84
2021/03/17 09:47:06;;;;;;;8.32;5.90;;;7.60;99.90;;;;;;4997301;28;20053;-86
2021/03/17 09:49:34;;;;;;;10.65;6.00;;;7.20;99.90;;;;;;4997245;28;20380;-85
2021/03/17 09:52:04;;;;;;;11.00;6.22;;;7.30;99.90;;;;;;5000178;28;20428;-83
2021/03/17 09:54:36;;;;;;;8.00;5.32;;;7.40;99.90;;;;;;5000284;28;20082;-84
2021/03/17 09:57:07;;;;;;;7.95;5.75;;;7.80;99.90;;;;;;4995548;28;20077;-85
2021/03/17 09:59:40;;;;;;;6.88;4.65;;;8.60;99.90;;;;;;4996126;28;20050;-84
2021/03/17 10:02:13;;;;;;;9.13;4.75;;;8.90;97.90;;;;;;5018687;28;20053;-85
2021/03/17 10:04:45;;;;;;;9.38;4.78;;;8.90;92.30;;;;;;5018463;28;20049;-84
2021/03/17 10:07:44;;;;;;;10.20;5.60;;;8.70;92.90;;;;;;5019677;28;20059;-83
2021/03/17 10:10:16;;;;;;;8.55;5.43;;;8.10;96.90;;;;;;5032868;28;20111;-84
2021/03/17 10:12:45;;;;;;;10.27;5.10;;;7.70;99.90;;;;;;5031054;28;20049;-84
2021/03/17 10:15:16;;;;;;;6.97;4.40;;;7.40;99.90;;;;;;5029622;28;20076;-83
2021/03/17 10:17:48;;;;;;;8.13;4.65;;;7.50;99.90;;;;;;5018137;28;20144;-83
2021/03/17 10:20:20;;;;;;;5.55;4.25;;;8.40;99.50;;;;;;5032991;28;20046;-83
2021/03/17 10:22:50;;;;;;;6.28;4.80;;;8.90;99.70;;;;;;5037479;28;20069;-84
2021/03/17 10:25:22;;;;;;;7.63;4.70;;;9.00;92.20;;;;;;5046702;28;20095;-84
2021/03/17 10:28:05;;;;;;;6.00;3.95;;;9.10;91.70;;;;;;5051234;28;20050;-85
2021/03/17 10:30:34;;;;;;;7.13;4.68;;;9.60;95.00;;;;;;5035764;28;20065;-85
2021/03/17 10:33:10;;;;;;;5.72;3.92;;;10.70;89.00;;;;;;5019783;28;20069;-83
2021/03/17 10:35:40;;;;;;;7.40;4.07;;;11.80;82.10;;;;;;5013687;28;20136;-83
2021/03/17 10:38:08;;;;;;;5.68;3.47;;;13.40;70.60;;;;;;5035098;28;20060;-82
2021/03/17 10:40:37;;;;;;;8.38;3.75;;;14.90;64.60;;;;;;5033172;28;20060;-84
2021/03/17 10:43:12;;;;;;;7.80;3.70;;;16.10;56.20;;;;;;5012922;28;20125;-84
2021/03/17 10:45:50;;;;;;;4.13;3.13;;;16.10;53.60;;;;;;5034790;28;20100;-83
2021/03/17 10:48:23;;;;;;;4.15;3.15;;;16.10;55.30;;;;;;5017520;28;20129;-84
2021/03/17 10:50:51;;;;;;;7.93;3.30;;;15.80;51.90;;;;;;5029257;28;20061;-83
2021/03/17 10:53:27;;;;;;;5.22;3.55;;;14.80;53.30;;;;;;5034924;28;20053;-82
2021/03/17 10:55:58;;;;;;;5.28;3.42;;;13.60;55.40;;;;;;5034412;28;20179;-83
2021/03/17 10:58:31;;;;;;;4.70;3.35;;;12.00;60.30;;;;;;5017336;28;20037;-82
2021/03/17 11:01:04;;;;;;;6.43;3.10;;;11.20;63.10;;;;;;5030243;28;20111;-83
2021/03/17 11:03:41;;;;;;;4.10;3.40;;;12.40;66.90;;;;;;5034517;28;20049;-84
2021/03/17 11:06:11;;;;;;;5.00;2.90;;;13.70;60.40;;;;;;5000968;28;20053;-83
2021/03/17 11:08:39;;;;;;;4.38;3.50;;;14.00;56.30;;;;;;5030421;28;20045;-83
2021/03/17 11:11:07;;;;;;;7.38;3.53;;;13.60;56.30;;;;;;5033234;28;20434;-84
2021/03/17 11:13:38;;;;;;;3.55;3.10;;;13.10;58.20;;;;;;5033621;28;20053;-83
2021/03/17 11:16:27;;;;;;;7.18;3.90;;;12.60;58.80;;;;;;5033547;28;20109;-83
2021/03/17 11:18:58;;;;;;;8.90;3.95;;;12.20;58.50;;;;;;5033812;28;20053;-84
2021/03/17 11:21:30;;;;;;;6.35;4.00;;;11.50;58.20;;;;;;5033688;28;20049;-83
2021/03/17 11:24:16;;;;;;;7.72;3.50;;;11.10;60.30;;;;;;5032670;28;20053;-82
2021/03/17 11:26:43;;;;;;;5.50;3.78;;;10.50;62.80;;;;;;5029774;28;20325;-83
2021/03/17 11:29:24;;;;;;;8.13;3.90;;;9.90;65.90;;;;;;5015609;28;20144;-83
2021/03/17 11:31:53;;;;;;;4.93;3.90;;;9.70;69.20;;;;;;5014799;28;20041;-84
2021/03/17 11:34:21;;;;;;;6.85;3.95;;;9.80;70.40;;;;;;5032068;28;20045;-84
2021/03/17 11:36:49;;;;;;;5.75;3.80;;;10.00;71.20;;;;;;5031812;28;20168;-83
2021/03/17 11:39:20;;;;;;;5.53;3.55;;;10.30;67.00;;;;;;5031207;28;20045;-82
2021/03/17 11:41:48;;;;;;;4.60;3.08;;;10.30;66.70;;;;;;5028296;28;20049;-83
2021/03/17 11:44:21;;;;;;;6.30;3.38;;;10.00;70.00;;;;;;5031813;28;20049;-83
2021/03/17 11:46:48;;;;;;;4.03;3.20;;;9.80;68.00;;;;;;5031279;28;20063;-83
2021/03/17 11:49:16;;;;;;;5.07;3.17;;;9.70;69.20;;;;;;5015808;28;20059;-83
2021/03/17 11:51:46;;;;;;;4.55;3.40;;;9.40;69.10;;;;;;5032638;28;20419;-82
2021/03/17 11:54:29;;;;;;;4.32;3.28;;;9.00;76.80;;;;;;5032006;28;20057;-83
2021/03/17 11:57:03;;;;;;;5.30;3.92;;;8.80;73.80;;;;;;5030660;28;20510;-83
2021/03/17 11:59:31;;;;;;;6.70;4.38;;;8.50;75.50;;;;;;5027113;28;20432;-85
2021/03/17 12:01:57;;;;;;;5.85;4.22;;;8.00;84.40;;;;;;5015278;28;20466;-85
2021/03/17 12:04:27;;;;;;;5.40;3.45;;;7.70;90.10;;;;;;5033086;28;20093;-85
2021/03/17 12:06:53;;;;;;;5.53;4.25;;;7.40;90.70;;;;;;5015485;28;20050;-83
2021/03/17 12:09:22;;;;;;;9.00;4.45;;;7.10;92.80;;;;;;5015549;28;20058;-83
2021/03/17 12:11:48;;;;;;;6.05;4.60;;;6.70;99.90;;;;;;5008080;28;20115;-83
2021/03/17 12:14:17;;;;;;;7.32;4.60;;;6.40;99.90;;;;;;5016219;28;20049;-84
2021/03/17 12:16:46;;;;;;;6.97;5.18;;;6.10;99.90;;;;;;5033445;28;20112;-84
2021/03/17 12:19:14;;;;;;;8.93;5.50;;;6.00;99.90;;;;;;5016513;28;20047;-84
2021/03/17 12:21:40;;;;;;;7.80;5.18;;;5.80;99.90;;;;;;5015988;28;20046;-84
2021/03/17 12:24:07;;;;;;;9.27;5.80;;;5.70;99.90;;;;;;5033915;28;20077;-86
2021/03/17 12:26:35;;;;;;;9.60;5.85;;;5.60;99.90;;;;;;5010446;28;20049;-85
2021/03/17 12:29:03;;;;;;;8.95;5.80;;;5.50;99.90;;;;;;5034000;28;20076;-83
2021/03/17 12:31:31;;;;;;;10.95;5.63;;;5.40;99.90;;;;;;5012782;28;20099;-85
2021/03/17 12:33:58;;;;;;;11.65;7.03;;;5.40;99.90;;;;;;5016764;28;20049;-84
2021/03/17 12:36:25;;;;;;;9.80;6.97;;;5.20;99.90;;;;;;5018602;28;20467;-83
2021/03/17 12:38:54;;;;;;;10.45;6.85;;;5.00;99.90;;;;;;5037037;28;20037;-84
2021/03/17 12:41:20;;;;;;;12.25;8.18;;;4.80;99.90;;;;;;5037133;28;20061;-86
2021/03/17 12:43:47;;;;;;;15.05;8.50;;;4.70;99.90;;;;;;5020030;28;20111;-83
2021/03/17 12:46:14;;;;;;;14.15;9.60;;;4.60;99.90;;;;;;5036949;28;20045;-86
2021/03/17 12:48:43;;;;;;;16.08;9.18;;;4.70;99.90;;;;;;5035640;28;20148;-86
2021/03/17 12:51:11;;;;;;;14.60;9.25;;;5.00;99.90;;;;;;5043953;28;20132;-85
2021/03/17 12:53:39;;;;;;;15.38;9.02;;;5.20;99.90;;;;;;5004128;28;20164;-85
2021/03/17 12:56:07;;;;;;;16.52;9.50;;;5.20;99.90;;;;;;5037209;28;20482;-88
2021/03/17 12:58:39;;;;;;;12.75;9.20;;;5.50;99.90;;;;;;5036850;28;20053;-84
2021/03/17 13:01:05;;;;;;;10.68;7.97;;;5.60;99.90;;;;;;5039800;28;20050;-85
2021/03/17 13:04:12;;;;;;;13.73;9.20;;;5.50;99.90;;;;;;5039433;28;20061;-86
2021/03/17 13:07:04;;;;;;;18.27;9.85;;;5.40;99.90;;;;;;4949926;29;20098;-85
2021/03/17 13:11:04;;;;;;;15.27;9.15;;;5.00;99.90;;;;;;5035413;28;20116;-86
2021/03/17 13:13:55;;;;;;;17.38;10.95;;;4.70;99.90;;;;;;4920264;29;20076;-86